Terminal Aerodrome Forecast
Issued by NWS Sioux Falls, SD

Home | Current Version | Previous Version | Text Only | Print | Product List | Glossary Off
Versions: 1 2 3 4 5 6 7 8 9 10 11 12 13 14 15 16 17 18

000
FTUS43 KFSD 151120
TAFHON
TAF
KHON 151120Z 1512/1612 26008KT P6SM SCT045 BKN120
      TEMPO 1512/1514 BKN045
     FM151500 24006KT P6SM BKN120
     FM152200 19010KT P6SM BKN200
     FM160100 21006KT P6SM BKN200
     FM160800 27006KT P6SM SCT200=

USA.gov is the U.S. government's official web portal to all federal, state and local government web resources and services.